Time;durP1;ratioP1;P1;durP2;ratioP2;P2;SDS_P1;SDS_P2;PMS_P1;PMS_P2;Temp;Humidity;BMP_temperature;BMP_pressure;BME280_temperature;BME280_humidity;BME280_pressure;Samples;Min_cycle;Max_cycle;Signal;HPM_P1;HPM_P2
2022/12/16 00:01:57;;;;;;;9.40;6.65;;;15.20;41.90;;;;;;5066985;28;45316;-75
2022/12/16 00:04:25;;;;;;;8.13;6.38;;;15.20;42.40;;;;;;5066906;28;45333;-75
2022/12/16 00:06:52;;;;;;;9.73;6.38;;;15.30;41.80;;;;;;5067053;28;45253;-75
2022/12/16 00:09:19;;;;;;;8.98;6.45;;;15.30;41.60;;;;;;5067181;28;45251;-75
2022/12/16 00:11:46;;;;;;;10.13;6.63;;;15.30;41.60;;;;;;5066803;28;45740;-75
2022/12/16 00:14:12;;;;;;;9.68;7.07;;;15.40;41.50;;;;;;5066702;28;45281;-75
2022/12/16 00:16:39;;;;;;;10.18;6.55;;;15.40;41.50;;;;;;5066938;28;45285;-75
2022/12/16 00:19:06;;;;;;;8.90;6.32;;;15.40;41.30;;;;;;5066980;28;45264;-75
2022/12/16 00:21:35;;;;;;;8.27;6.32;;;15.50;41.30;;;;;;5066491;28;48247;-75
2022/12/16 00:24:02;;;;;;;9.73;7.35;;;15.50;41.30;;;;;;5066527;28;45323;-75
2022/12/16 00:26:30;;;;;;;8.73;6.40;;;15.50;41.20;;;;;;5066806;28;45308;-75
2022/12/16 00:28:57;;;;;;;9.13;6.60;;;15.50;41.20;;;;;;5066931;28;45590;-74
2022/12/16 00:31:24;;;;;;;9.48;6.45;;;15.40;41.20;;;;;;5065726;28;45246;-75
2022/12/16 00:33:51;;;;;;;9.93;6.80;;;15.40;41.40;;;;;;5066440;28;45204;-75
2022/12/16 00:36:18;;;;;;;9.38;6.50;;;15.40;41.20;;;;;;5066714;28;45421;-75
2022/12/16 00:38:46;;;;;;;9.13;6.38;;;15.40;41.20;;;;;;5066839;28;45304;-75
2022/12/16 00:41:13;;;;;;;8.25;6.35;;;15.40;41.20;;;;;;5066464;28;47477;-75
2022/12/16 00:43:40;;;;;;;8.15;6.25;;;15.40;41.20;;;;;;5066437;28;45177;-74
2022/12/16 00:46:07;;;;;;;9.88;6.88;;;15.30;41.20;;;;;;5066401;28;45234;-75
2022/12/16 00:48:34;;;;;;;8.77;6.35;;;15.30;41.30;;;;;;5066701;28;45307;-75
2022/12/16 00:51:00;;;;;;;7.30;5.85;;;15.30;41.30;;;;;;5066301;28;46714;-74
2022/12/16 00:53:27;;;;;;;9.63;6.55;;;15.30;41.40;;;;;;5067734;28;45458;-75
2022/12/16 00:56:03;;;;;;;9.63;7.47;;;15.20;41.50;;;;;;5070019;28;45142;-75
2022/12/16 00:58:30;;;;;;;8.88;6.38;;;15.20;41.60;;;;;;5070099;28;45573;-75
2022/12/16 01:00:57;;;;;;;9.30;6.20;;;15.20;41.60;;;;;;5069784;28;46921;-75
2022/12/16 01:03:23;;;;;;;7.43;5.70;;;15.20;41.60;;;;;;5069707;28;45371;-75
2022/12/16 01:05:50;;;;;;;8.15;5.47;;;15.10;41.60;;;;;;5069795;28;45311;-75
2022/12/16 01:08:17;;;;;;;7.53;5.68;;;15.10;41.70;;;;;;5070022;28;45229;-74
2022/12/16 01:10:50;;;;;;;8.77;6.57;;;15.20;41.70;;;;;;5069591;28;45242;-75
2022/12/16 01:13:19;;;;;;;7.18;5.57;;;15.20;41.60;;;;;;5069701;28;45168;-75
2022/12/16 01:15:45;;;;;;;9.00;6.43;;;15.20;41.50;;;;;;5069928;28;45196;-75
2022/12/16 01:18:12;;;;;;;6.85;5.50;;;15.20;41.50;;;;;;5069112;28;45290;-75
2022/12/16 01:20:39;;;;;;;7.68;5.70;;;15.20;41.40;;;;;;5069116;28;45305;-75
2022/12/16 01:23:06;;;;;;;7.68;5.40;;;15.30;41.40;;;;;;5069611;28;45214;-75
2022/12/16 01:25:33;;;;;;;7.22;5.85;;;15.30;41.40;;;;;;5069536;28;45213;-75
2022/12/16 01:28:00;;;;;;;7.00;5.55;;;15.30;41.30;;;;;;5069769;28;45180;-75
2022/12/16 01:30:28;;;;;;;8.70;6.10;;;15.40;41.30;;;;;;5069331;28;45558;-75
2022/12/16 01:32:55;;;;;;;7.47;5.80;;;15.40;41.20;;;;;;5069286;28;45281;-74
2022/12/16 01:35:22;;;;;;;8.90;6.35;;;15.50;41.10;;;;;;5069511;28;45324;-75
2022/12/16 01:37:49;;;;;;;7.75;5.90;;;15.50;41.00;;;;;;5069615;28;45181;-75
2022/12/16 01:40:17;;;;;;;7.72;5.95;;;15.50;40.90;;;;;;5069125;28;46374;-75
2022/12/16 01:42:44;;;;;;;8.05;6.13;;;15.50;40.90;;;;;;5069130;28;45340;-75
2022/12/16 01:45:31;;;;;;;9.05;5.78;;;15.50;40.90;;;;;;5069208;28;45235;-74
2022/12/16 01:47:59;;;;;;;7.60;5.22;;;15.50;40.90;;;;;;5069440;28;45214;-75
2022/12/16 01:50:26;;;;;;;8.48;5.68;;;15.50;40.90;;;;;;5069021;28;45455;-75
2022/12/16 01:52:55;;;;;;;6.40;5.65;;;15.50;40.90;;;;;;5068742;28;45322;-75
2022/12/16 01:55:22;;;;;;;8.13;6.00;;;15.50;41.00;;;;;;5069140;28;45315;-75
2022/12/16 01:57:51;;;;;;;9.43;6.53;;;15.40;41.00;;;;;;5069291;28;45171;-75
2022/12/16 02:00:18;;;;;;;7.15;5.97;;;15.40;41.00;;;;;;5068889;28;45567;-75
2022/12/16 02:02:47;;;;;;;8.63;6.20;;;15.40;41.10;;;;;;5068848;28;45307;-75
2022/12/16 02:05:20;;;;;;;8.27;6.05;;;15.40;41.20;;;;;;5068756;28;45208;-74
2022/12/16 02:07:55;;;;;;;7.20;5.47;;;15.30;41.20;;;;;;5069202;28;45337;-75
2022/12/16 02:10:23;;;;;;;6.75;5.50;;;15.30;41.30;;;;;;5068667;28;46764;-75
2022/12/16 02:12:52;;;;;;;8.20;6.80;;;15.30;41.30;;;;;;5068161;28;45181;-74
2022/12/16 02:15:29;;;;;;;8.90;6.22;;;15.20;41.30;;;;;;5068028;28;45350;-75
2022/12/16 02:18:01;;;;;;;8.23;6.28;;;15.20;41.40;;;;;;5068199;28;45364;-74
2022/12/16 02:20:58;;;;;;;9.20;5.97;;;15.20;42.00;;;;;;5068161;28;45734;-75
2022/12/16 02:23:50;;;;;;;8.50;5.85;;;15.10;41.40;;;;;;5068658;28;45316;-74
2022/12/16 02:26:38;;;;;;;7.18;5.57;;;15.10;42.10;;;;;;5068939;28;45557;-74
2022/12/16 02:29:24;;;;;;;6.85;5.40;;;15.10;41.40;;;;;;5068781;28;45486;-74
2022/12/16 02:31:54;;;;;;;8.02;5.47;;;15.20;41.40;;;;;;5068441;28;45499;-75
2022/12/16 02:34:23;;;;;;;7.57;5.43;;;15.20;41.30;;;;;;5068312;28;45269;-75
2022/12/16 02:37:05;;;;;;;8.40;5.88;;;15.20;41.30;;;;;;5068404;28;45327;-75
2022/12/16 02:39:35;;;;;;;7.72;5.55;;;15.20;41.30;;;;;;5068580;28;45544;-75
2022/12/16 02:42:06;;;;;;;6.68;5.10;;;15.30;41.20;;;;;;5068334;28;45553;-75
2022/12/16 02:44:35;;;;;;;8.60;5.75;;;15.40;41.10;;;;;;5068361;28;45308;-75
2022/12/16 02:47:03;;;;;;;6.68;5.43;;;15.40;41.00;;;;;;5068515;28;45271;-75
2022/12/16 02:49:52;;;;;;;6.70;5.38;;;15.50;40.90;;;;;;5068421;28;45139;-75
2022/12/16 02:52:20;;;;;;;7.43;5.53;;;15.50;40.80;;;;;;5063199;28;45489;-74
2022/12/16 02:54:47;;;;;;;6.90;5.07;;;15.60;40.80;;;;;;5067786;28;45363;-75
2022/12/16 02:57:43;;;;;;;7.38;5.50;;;15.60;40.80;;;;;;5068266;28;45272;-74
2022/12/16 03:00:11;;;;;;;7.53;5.20;;;15.60;40.70;;;;;;5062913;28;45190;-74
2022/12/16 03:02:42;;;;;;;7.25;5.38;;;15.60;40.70;;;;;;5067870;28;46410;-75
2022/12/16 03:05:10;;;;;;;8.00;5.78;;;15.60;40.70;;;;;;5067942;28;45199;-74
2022/12/16 03:07:38;;;;;;;7.13;5.20;;;15.60;40.70;;;;;;5068149;28;45498;-74
2022/12/16 03:10:05;;;;;;;8.70;5.28;;;15.60;40.70;;;;;;5068094;28;45446;-75
2022/12/16 03:12:32;;;;;;;7.22;5.18;;;15.60;40.70;;;;;;5067177;28;45478;-75
2022/12/16 03:14:59;;;;;;;7.13;5.43;;;15.50;40.80;;;;;;5067513;28;45193;-74
2022/12/16 03:17:26;;;;;;;7.60;5.38;;;15.50;40.80;;;;;;5067419;28;45253;-75
2022/12/16 03:19:57;;;;;;;10.50;5.93;;;15.50;40.90;;;;;;5068000;28;45344;-75
2022/12/16 03:22:26;;;;;;;8.13;5.88;;;15.50;40.80;;;;;;5067534;28;45253;-75
2022/12/16 03:24:53;;;;;;;8.25;5.63;;;15.40;40.80;;;;;;5067650;28;45519;-75
2022/12/16 03:27:21;;;;;;;7.50;5.43;;;15.40;40.90;;;;;;5067668;28;45300;-74
2022/12/16 03:29:51;;;;;;;7.53;5.75;;;15.30;40.90;;;;;;5068016;28;45617;-75
2022/12/16 03:32:20;;;;;;;7.47;5.68;;;15.30;41.00;;;;;;5067398;28;46650;-75
2022/12/16 03:34:50;;;;;;;7.90;5.13;;;15.30;41.00;;;;;;5067437;28;45313;-74
2022/12/16 03:37:19;;;;;;;7.05;5.03;;;15.30;41.10;;;;;;5067521;28;45205;-74
2022/12/16 03:39:47;;;;;;;7.35;5.32;;;15.20;41.10;;;;;;5067664;28;45455;-75
2022/12/16 03:42:14;;;;;;;8.25;6.05;;;15.20;41.20;;;;;;5067314;28;45557;-75
2022/12/16 03:44:41;;;;;;;8.43;5.80;;;15.10;41.20;;;;;;5067220;28;45144;-75
2022/12/16 03:47:07;;;;;;;8.25;5.45;;;15.20;41.20;;;;;;5067399;28;45196;-74
2022/12/16 03:49:34;;;;;;;7.93;5.93;;;15.20;41.70;;;;;;5067592;28;45402;-74
2022/12/16 03:52:01;;;;;;;7.35;5.30;;;15.20;41.20;;;;;;5067081;28;46733;-74
2022/12/16 03:54:29;;;;;;;7.50;5.30;;;15.20;41.20;;;;;;5066841;28;45380;-74
2022/12/16 03:56:56;;;;;;;6.68;4.88;;;15.30;41.30;;;;;;5067397;28;45299;-74
2022/12/16 03:59:23;;;;;;;6.82;4.70;;;15.30;41.20;;;;;;5066527;28;45396;-75
2022/12/16 04:01:50;;;;;;;6.70;5.13;;;15.40;41.10;;;;;;5066920;28;45312;-75
2022/12/16 04:04:17;;;;;;;6.53;5.05;;;15.40;41.00;;;;;;5066905;28;45332;-75
2022/12/16 04:06:43;;;;;;;6.55;5.05;;;15.50;40.90;;;;;;5067040;28;45197;-74
2022/12/16 04:09:10;;;;;;;7.22;5.35;;;15.60;40.80;;;;;;5067315;28;45204;-75
2022/12/16 04:25:35;;;;;;;6.13;5.00;;;15.70;40.50;;;;;;5063581;28;45379;-74
2022/12/16 04:28:03;;;;;;;7.75;5.22;;;15.60;40.40;;;;;;5065009;28;45315;-75
2022/12/16 04:30:33;;;;;;;6.35;3.95;;;15.60;40.50;;;;;;5066439;28;45178;-75
